sensor_id;sensor_type;location;lat;lon;timestamp;temperature;humidity
75217;HTU21D;63800;51.972;5.682;2023-06-04T00:01:57;14.32;59.98
75217;HTU21D;63800;51.972;5.682;2023-06-04T00:04:22;14.25;60.19
75217;HTU21D;63800;51.972;5.682;2023-06-04T00:06:48;14.13;60.88
75217;HTU21D;63800;51.972;5.682;2023-06-04T00:09:14;13.99;61.70
75217;HTU21D;63800;51.972;5.682;2023-06-04T00:11:40;14.01;61.21
75217;HTU21D;63800;51.972;5.682;2023-06-04T00:14:05;13.94;61.24
75217;HTU21D;63800;51.972;5.682;2023-06-04T00:16:31;13.90;60.86
75217;HTU21D;63800;51.972;5.682;2023-06-04T00:18:56;13.85;61.29
75217;HTU21D;63800;51.972;5.682;2023-06-04T00:21:22;14.04;61.05
75217;HTU21D;63800;51.972;5.682;2023-06-04T00:23:47;14.21;59.94
75217;HTU21D;63800;51.972;5.682;2023-06-04T00:26:13;14.08;60.28
75217;HTU21D;63800;51.972;5.682;2023-06-04T00:28:38;14.01;59.92
75217;HTU21D;63800;51.972;5.682;2023-06-04T00:31:06;13.91;60.32
75217;HTU21D;63800;51.972;5.682;2023-06-04T00:33:32;14.15;59.35
75217;HTU21D;63800;51.972;5.682;2023-06-04T00:35:57;13.92;60.49
75217;HTU21D;63800;51.972;5.682;2023-06-04T00:38:23;13.73;61.99
75217;HTU21D;63800;51.972;5.682;2023-06-04T00:40:49;13.77;61.01
75217;HTU21D;63800;51.972;5.682;2023-06-04T00:43:14;13.80;59.48
75217;HTU21D;63800;51.972;5.682;2023-06-04T00:45:40;13.75;60.58
75217;HTU21D;63800;51.972;5.682;2023-06-04T00:48:06;13.73;60.31
75217;HTU21D;63800;51.972;5.682;2023-06-04T00:50:32;13.62;60.84
75217;HTU21D;63800;51.972;5.682;2023-06-04T00:52:58;13.53;60.78
75217;HTU21D;63800;51.972;5.682;2023-06-04T00:55:24;13.51;60.88
75217;HTU21D;63800;51.972;5.682;2023-06-04T00:57:50;13.44;61.23
75217;HTU21D;63800;51.972;5.682;2023-06-04T01:00:16;13.63;60.86
75217;HTU21D;63800;51.972;5.682;2023-06-04T01:02:43;13.51;60.79
75217;HTU21D;63800;51.972;5.682;2023-06-04T01:05:14;13.44;61.76
75217;HTU21D;63800;51.972;5.682;2023-06-04T01:07:42;13.22;62.49
75217;HTU21D;63800;51.972;5.682;2023-06-04T01:10:12;13.20;62.43
75217;HTU21D;63800;51.972;5.682;2023-06-04T01:12:44;13.27;61.63
75217;HTU21D;63800;51.972;5.682;2023-06-04T01:15:10;13.26;61.68
75217;HTU21D;63800;51.972;5.682;2023-06-04T01:17:41;13.33;60.45
75217;HTU21D;63800;51.972;5.682;2023-06-04T01:25:40;13.12;61.58
75217;HTU21D;63800;51.972;5.682;2023-06-04T01:28:07;13.05;62.28
75217;HTU21D;63800;51.972;5.682;2023-06-04T01:30:34;13.06;62.39
75217;HTU21D;63800;51.972;5.682;2023-06-04T01:33:02;12.93;63.53
75217;HTU21D;63800;51.972;5.682;2023-06-04T01:35:29;12.94;63.22
75217;HTU21D;63800;51.972;5.682;2023-06-04T01:37:56;12.85;63.36
75217;HTU21D;63800;51.972;5.682;2023-06-04T01:40:22;12.87;62.57
75217;HTU21D;63800;51.972;5.682;2023-06-04T01:42:48;12.78;62.94
75217;HTU21D;63800;51.972;5.682;2023-06-04T01:45:13;12.77;63.21
75217;HTU21D;63800;51.972;5.682;2023-06-04T01:47:39;12.71;64.21
75217;HTU21D;63800;51.972;5.682;2023-06-04T01:50:05;12.73;63.34
75217;HTU21D;63800;51.972;5.682;2023-06-04T01:52:40;12.63;63.69
75217;HTU21D;63800;51.972;5.682;2023-06-04T01:55:12;12.59;63.19
75217;HTU21D;63800;51.972;5.682;2023-06-04T01:57:38;12.57;64.02
75217;HTU21D;63800;51.972;5.682;2023-06-04T02:00:05;12.44;64.13
75217;HTU21D;63800;51.972;5.682;2023-06-04T02:02:33;12.43;65.08
75217;HTU21D;63800;51.972;5.682;2023-06-04T02:04:59;12.50;64.27
75217;HTU21D;63800;51.972;5.682;2023-06-04T02:07:24;12.41;64.87
75217;HTU21D;63800;51.972;5.682;2023-06-04T02:09:51;12.34;64.53
75217;HTU21D;63800;51.972;5.682;2023-06-04T02:12:16;12.44;65.01
75217;HTU21D;63800;51.972;5.682;2023-06-04T02:14:42;12.32;64.98
75217;HTU21D;63800;51.972;5.682;2023-06-04T02:17:08;12.32;64.21
75217;HTU21D;63800;51.972;5.682;2023-06-04T02:19:41;12.38;64.30
75217;HTU21D;63800;51.972;5.682;2023-06-04T02:22:11;12.32;64.04
75217;HTU21D;63800;51.972;5.682;2023-06-04T02:24:37;12.30;64.94
75217;HTU21D;63800;51.972;5.682;2023-06-04T02:27:04;12.33;64.20
75217;HTU21D;63800;51.972;5.682;2023-06-04T02:29:30;12.31;64.95
75217;HTU21D;63800;51.972;5.682;2023-06-04T02:31:56;12.23;64.40
75217;HTU21D;63800;51.972;5.682;2023-06-04T02:34:21;12.15;65.22
75217;HTU21D;63800;51.972;5.682;2023-06-04T02:36:48;12.20;65.11
75217;HTU21D;63800;51.972;5.682;2023-06-04T02:39:18;12.22;64.98
75217;HTU21D;63800;51.972;5.682;2023-06-04T02:41:44;12.20;64.39
75217;HTU21D;63800;51.972;5.682;2023-06-04T02:44:10;12.27;64.39
75217;HTU21D;63800;51.972;5.682;2023-06-04T02:46:36;12.19;64.33
75217;HTU21D;63800;51.972;5.682;2023-06-04T02:49:02;12.25;64.18
75217;HTU21D;63800;51.972;5.682;2023-06-04T02:51:28;12.16;64.03
75217;HTU21D;63800;51.972;5.682;2023-06-04T02:53:54;12.15;64.51
75217;HTU21D;63800;51.972;5.682;2023-06-04T02:56:19;12.10;64.82
75217;HTU21D;63800;51.972;5.682;2023-06-04T02:58:51;12.37;64.05
75217;HTU21D;63800;51.972;5.682;2023-06-04T03:01:25;12.13;64.35
75217;HTU21D;63800;51.972;5.682;2023-06-04T03:03:52;12.01;65.33
75217;HTU21D;63800;51.972;5.682;2023-06-04T03:06:19;11.93;65.64
75217;HTU21D;63800;51.972;5.682;2023-06-04T03:08:46;11.92;65.14
75217;HTU21D;63800;51.972;5.682;2023-06-04T03:11:12;11.88;65.30
75217;HTU21D;63800;51.972;5.682;2023-06-04T03:13:37;11.92;65.84
75217;HTU21D;63800;51.972;5.682;2023-06-04T03:16:03;11.88;65.50
75217;HTU21D;63800;51.972;5.682;2023-06-04T03:18:37;11.82;66.07
75217;HTU21D;63800;51.972;5.682;2023-06-04T03:21:04;11.84;66.12
75217;HTU21D;63800;51.972;5.682;2023-06-04T03:23:30;11.70;66.75
75217;HTU21D;63800;51.972;5.682;2023-06-04T03:25:56;11.66;67.63
75217;HTU21D;63800;51.972;5.682;2023-06-04T03:28:21;11.62;66.80
75217;HTU21D;63800;51.972;5.682;2023-06-04T03:30:47;11.51;67.59
75217;HTU21D;63800;51.972;5.682;2023-06-04T03:33:12;11.70;67.02
75217;HTU21D;63800;51.972;5.682;2023-06-04T03:35:40;11.71;66.68
75217;HTU21D;63800;51.972;5.682;2023-06-04T03:38:05;11.84;65.66
75217;HTU21D;63800;51.972;5.682;2023-06-04T03:40:31;11.88;65.27
75217;HTU21D;63800;51.972;5.682;2023-06-04T03:42:56;11.82;65.66
75217;HTU21D;63800;51.972;5.682;2023-06-04T03:45:22;11.71;64.99
75217;HTU21D;63800;51.972;5.682;2023-06-04T03:47:47;11.68;65.68
75217;HTU21D;63800;51.972;5.682;2023-06-04T03:50:12;11.63;66.20
75217;HTU21D;63800;51.972;5.682;2023-06-04T03:52:38;11.52;67.23
75217;HTU21D;63800;51.972;5.682;2023-06-04T03:55:04;11.38;67.18
75217;HTU21D;63800;51.972;5.682;2023-06-04T03:57:29;11.47;66.85
75217;HTU21D;63800;51.972;5.682;2023-06-04T03:59:56;11.42;67.81
75217;HTU21D;63800;51.972;5.682;2023-06-04T04:02:21;11.45;67.55
75217;HTU21D;63800;51.972;5.682;2023-06-04T04:04:47;11.58;67.65
75217;HTU21D;63800;51.972;5.682;2023-06-04T04:07:13;11.61;67.74
75217;HTU21D;63800;51.972;5.682;2023-06-04T04:09:39;11.64;68.52
75217;HTU21D;63800;51.972;5.682;2023-06-04T04:12:04;11.40;67.91
75217;HTU21D;63800;51.972;5.682;2023-06-04T04:14:30;11.46;69.31
75217;HTU21D;63800;51.972;5.682;2023-06-04T04:16:55;11.42;68.54
75217;HTU21D;63800;51.972;5.682;2023-06-04T04:19:21;11.45;66.98
75217;HTU21D;63800;51.972;5.682;2023-06-04T04:21:47;11.57;67.78
75217;HTU21D;63800;51.972;5.682;2023-06-04T04:24:25;11.53;67.81
75217;HTU21D;63800;51.972;5.682;2023-06-04T04:26:51;11.58;68.36
75217;HTU21D;63800;51.972;5.682;2023-06-04T04:29:23;11.47;69.35
75217;HTU21D;63800;51.972;5.682;2023-06-04T04:31:52;11.52;68.19
75217;HTU21D;63800;51.972;5.682;2023-06-04T04:34:18;11.51;69.95
75217;HTU21D;63800;51.972;5.682;2023-06-04T04:36:47;11.49;69.25
75217;HTU21D;63800;51.972;5.682;2023-06-04T04:39:22;11.58;69.88
75217;HTU21D;63800;51.972;5.682;2023-06-04T04:41:48;11.74;68.63
75217;HTU21D;63800;51.972;5.682;2023-06-04T04:44:14;11.78;69.67
75217;HTU21D;63800;51.972;5.682;2023-06-04T04:46:39;11.83;69.98
75217;HTU21D;63800;51.972;5.682;2023-06-04T04:49:04;11.84;69.42
75217;HTU21D;63800;51.972;5.682;2023-06-04T04:51:30;11.85;69.83
75217;HTU21D;63800;51.972;5.682;2023-06-04T04:53:55;11.77;70.89
75217;HTU21D;63800;51.972;5.682;2023-06-04T04:56:21;11.89;71.35
75217;HTU21D;63800;51.972;5.682;2023-06-04T04:58:48;11.87;70.35
75217;HTU21D;63800;51.972;5.682;2023-06-04T05:01:14;11.77;70.36
75217;HTU21D;63800;51.972;5.682;2023-06-04T05:03:39;11.85;70.53
75217;HTU21D;63800;51.972;5.682;2023-06-04T05:06:05;11.94;71.22
75217;HTU21D;63800;51.972;5.682;2023-06-04T05:08:30;11.81;71.11
75217;HTU21D;63800;51.972;5.682;2023-06-04T05:10:56;11.92;71.61
75217;HTU21D;63800;51.972;5.682;2023-06-04T05:13:21;12.01;72.13
75217;HTU21D;63800;51.972;5.682;2023-06-04T05:15:48;12.05;70.86
75217;HTU21D;63800;51.972;5.682;2023-06-04T05:18:17;12.21;70.28
75217;HTU21D;63800;51.972;5.682;2023-06-04T05:20:46;12.30;69.48
75217;HTU21D;63800;51.972;5.682;2023-06-04T05:23:12;12.31;69.57
75217;HTU21D;63800;51.972;5.682;2023-06-04T05:25:37;12.19;71.89
75217;HTU21D;63800;51.972;5.682;2023-06-04T05:28:03;12.15;71.61
75217;HTU21D;63800;51.972;5.682;2023-06-04T05:30:30;12.23;71.26
75217;HTU21D;63800;51.972;5.682;2023-06-04T05:32:57;12.27;69.87
75217;HTU21D;63800;51.972;5.682;2023-06-04T05:35:24;12.48;70.91
75217;HTU21D;63800;51.972;5.682;2023-06-04T05:37:50;12.58;70.94
75217;HTU21D;63800;51.972;5.682;2023-06-04T05:40:21;12.57;71.21
75217;HTU21D;63800;51.972;5.682;2023-06-04T05:42:48;12.77;69.01
75217;HTU21D;63800;51.972;5.682;2023-06-04T05:45:13;12.65;70.47
75217;HTU21D;63800;51.972;5.682;2023-06-04T05:47:39;12.69;69.20
75217;HTU21D;63800;51.972;5.682;2023-06-04T05:50:05;12.69;70.61
75217;HTU21D;63800;51.972;5.682;2023-06-04T05:52:32;12.82;70.02
75217;HTU21D;63800;51.972;5.682;2023-06-04T05:54:57;12.92;70.49
75217;HTU21D;63800;51.972;5.682;2023-06-04T05:57:23;12.96;70.68
75217;HTU21D;63800;51.972;5.682;2023-06-04T05:59:48;13.12;68.36
75217;HTU21D;63800;51.972;5.682;2023-06-04T06:02:14;13.20;67.98
75217;HTU21D;63800;51.972;5.682;2023-06-04T06:04:40;13.38;68.76
75217;HTU21D;63800;51.972;5.682;2023-06-04T06:07:05;13.35;68.58
75217;HTU21D;63800;51.972;5.682;2023-06-04T06:09:31;13.40;67.71
75217;HTU21D;63800;51.972;5.682;2023-06-04T06:11:56;13.59;65.98
75217;HTU21D;63800;51.972;5.682;2023-06-04T06:14:22;13.50;68.43
75217;HTU21D;63800;51.972;5.682;2023-06-04T06:16:48;13.68;66.48
75217;HTU21D;63800;51.972;5.682;2023-06-04T06:19:14;13.66;68.15
75217;HTU21D;63800;51.972;5.682;2023-06-04T06:21:39;13.61;66.53
75217;HTU21D;63800;51.972;5.682;2023-06-04T06:24:05;13.70;68.26
75217;HTU21D;63800;51.972;5.682;2023-06-04T06:26:30;13.74;68.29
75217;HTU21D;63800;51.972;5.682;2023-06-04T06:28:56;13.76;68.78
75217;HTU21D;63800;51.972;5.682;2023-06-04T06:31:22;13.83;69.09
75217;HTU21D;63800;51.972;5.682;2023-06-04T06:33:48;13.93;68.08
75217;HTU21D;63800;51.972;5.682;2023-06-04T06:36:13;14.03;68.94
75217;HTU21D;63800;51.972;5.682;2023-06-04T06:38:39;14.08;65.21
75217;HTU21D;63800;51.972;5.682;2023-06-04T06:41:05;14.34;64.92
75217;HTU21D;63800;51.972;5.682;2023-06-04T06:43:31;14.55;64.14
75217;HTU21D;63800;51.972;5.682;2023-06-04T06:45:57;14.51;65.75
75217;HTU21D;63800;51.972;5.682;2023-06-04T06:48:23;14.64;64.60
75217;HTU21D;63800;51.972;5.682;2023-06-04T06:50:48;14.49;65.59
75217;HTU21D;63800;51.972;5.682;2023-06-04T06:53:14;14.43;68.24
75217;HTU21D;63800;51.972;5.682;2023-06-04T06:55:39;14.58;65.98
75217;HTU21D;63800;51.972;5.682;2023-06-04T06:58:05;14.77;63.85
75217;HTU21D;63800;51.972;5.682;2023-06-04T07:00:30;14.79;64.43
75217;HTU21D;63800;51.972;5.682;2023-06-04T07:02:56;14.88;62.47
75217;HTU21D;63800;51.972;5.682;2023-06-04T07:05:21;15.19;61.41
75217;HTU21D;63800;51.972;5.682;2023-06-04T07:07:47;15.26;61.58
75217;HTU21D;63800;51.972;5.682;2023-06-04T07:10:13;15.23;61.66
75217;HTU21D;63800;51.972;5.682;2023-06-04T07:12:39;15.36;61.90
75217;HTU21D;63800;51.972;5.682;2023-06-04T07:15:07;15.24;60.35
75217;HTU21D;63800;51.972;5.682;2023-06-04T07:17:33;15.38;60.50
75217;HTU21D;63800;51.972;5.682;2023-06-04T07:19:59;15.24;62.97
75217;HTU21D;63800;51.972;5.682;2023-06-04T07:22:25;15.41;60.80
75217;HTU21D;63800;51.972;5.682;2023-06-04T07:24:50;15.65;59.24
75217;HTU21D;63800;51.972;5.682;2023-06-04T07:27:16;15.53;59.64
75217;HTU21D;63800;51.972;5.682;2023-06-04T07:29:43;15.55;58.91
75217;HTU21D;63800;51.972;5.682;2023-06-04T07:32:09;15.62;57.00
75217;HTU21D;63800;51.972;5.682;2023-06-04T07:34:34;15.61;62.58
75217;HTU21D;63800;51.972;5.682;2023-06-04T07:37:02;15.67;58.60
75217;HTU21D;63800;51.972;5.682;2023-06-04T07:39:28;15.75;55.33
75217;HTU21D;63800;51.972;5.682;2023-06-04T07:41:53;15.88;57.68
75217;HTU21D;63800;51.972;5.682;2023-06-04T07:44:19;15.95;57.45
75217;HTU21D;63800;51.972;5.682;2023-06-04T07:46:44;16.05;58.06
75217;HTU21D;63800;51.972;5.682;2023-06-04T07:49:09;16.19;58.35
75217;HTU21D;63800;51.972;5.682;2023-06-04T07:51:35;16.15;56.57
75217;HTU21D;63800;51.972;5.682;2023-06-04T07:54:00;16.21;57.84
75217;HTU21D;63800;51.972;5.682;2023-06-04T07:56:27;16.33;59.12
75217;HTU21D;63800;51.972;5.682;2023-06-04T07:58:52;16.34;56.51
75217;HTU21D;63800;51.972;5.682;2023-06-04T08:01:18;16.43;54.36
75217;HTU21D;63800;51.972;5.682;2023-06-04T08:03:43;16.58;53.62
75217;HTU21D;63800;51.972;5.682;2023-06-04T08:06:09;16.61;54.04
75217;HTU21D;63800;51.972;5.682;2023-06-04T08:08:35;16.75;56.46
75217;HTU21D;63800;51.972;5.682;2023-06-04T08:11:00;16.82;55.13
75217;HTU21D;63800;51.972;5.682;2023-06-04T08:13:26;16.88;54.59
75217;HTU21D;63800;51.972;5.682;2023-06-04T08:15:52;16.91;52.33
75217;HTU21D;63800;51.972;5.682;2023-06-04T08:18:17;16.89;50.79
75217;HTU21D;63800;51.972;5.682;2023-06-04T08:20:42;17.04;52.53
75217;HTU21D;63800;51.972;5.682;2023-06-04T08:23:08;17.19;50.73
75217;HTU21D;63800;51.972;5.682;2023-06-04T08:25:33;17.15;49.38
75217;HTU21D;63800;51.972;5.682;2023-06-04T08:27:59;17.30;50.49
75217;HTU21D;63800;51.972;5.682;2023-06-04T08:30:25;17.33;50.60
75217;HTU21D;63800;51.972;5.682;2023-06-04T08:32:53;17.39;47.10
75217;HTU21D;63800;51.972;5.682;2023-06-04T08:35:18;17.54;48.58
75217;HTU21D;63800;51.972;5.682;2023-06-04T08:37:44;17.68;47.73
75217;HTU21D;63800;51.972;5.682;2023-06-04T08:40:10;17.62;47.83
75217;HTU21D;63800;51.972;5.682;2023-06-04T08:42:43;17.74;47.31
75217;HTU21D;63800;51.972;5.682;2023-06-04T08:45:11;17.89;47.51
75217;HTU21D;63800;51.972;5.682;2023-06-04T08:47:48;18.03;47.21
75217;HTU21D;63800;51.972;5.682;2023-06-04T08:50:17;18.03;47.11
75217;HTU21D;63800;51.972;5.682;2023-06-04T08:52:42;18.08;47.71
75217;HTU21D;63800;51.972;5.682;2023-06-04T08:55:09;18.19;47.62
75217;HTU21D;63800;51.972;5.682;2023-06-04T08:57:36;18.23;45.76
75217;HTU21D;63800;51.972;5.682;2023-06-04T09:00:02;18.39;45.73
75217;HTU21D;63800;51.972;5.682;2023-06-04T09:02:30;18.44;45.64
75217;HTU21D;63800;51.972;5.682;2023-06-04T09:04:56;18.47;47.12
75217;HTU21D;63800;51.972;5.682;2023-06-04T09:07:23;18.51;44.01
75217;HTU21D;63800;51.972;5.682;2023-06-04T09:09:49;18.48;39.63
75217;HTU21D;63800;51.972;5.682;2023-06-04T09:12:24;18.43;40.17
75217;HTU21D;63800;51.972;5.682;2023-06-04T09:14:50;18.57;41.97
75217;HTU21D;63800;51.972;5.682;2023-06-04T09:17:21;18.65;43.26
75217;HTU21D;63800;51.972;5.682;2023-06-04T09:19:47;18.69;42.39
75217;HTU21D;63800;51.972;5.682;2023-06-04T09:22:12;18.98;40.95
75217;HTU21D;63800;51.972;5.682;2023-06-04T09:24:43;19.01;42.11
75217;HTU21D;63800;51.972;5.682;2023-06-04T09:27:16;19.06;40.47
75217;HTU21D;63800;51.972;5.682;2023-06-04T09:29:52;19.05;42.38
75217;HTU21D;63800;51.972;5.682;2023-06-04T09:32:29;19.07;40.97
75217;HTU21D;63800;51.972;5.682;2023-06-04T09:35:07;19.15;41.00
75217;HTU21D;63800;51.972;5.682;2023-06-04T09:37:34;19.14;40.54
75217;HTU21D;63800;51.972;5.682;2023-06-04T09:39:59;19.15;39.83
75217;HTU21D;63800;51.972;5.682;2023-06-04T09:42:25;19.31;41.14
75217;HTU21D;63800;51.972;5.682;2023-06-04T09:44:50;19.44;40.54
75217;HTU21D;63800;51.972;5.682;2023-06-04T09:47:16;19.51;39.49
75217;HTU21D;63800;51.972;5.682;2023-06-04T09:49:46;19.47;40.69
75217;HTU21D;63800;51.972;5.682;2023-06-04T09:52:12;19.79;41.93
75217;HTU21D;63800;51.972;5.682;2023-06-04T09:54:39;19.79;38.98
75217;HTU21D;63800;51.972;5.682;2023-06-04T09:57:13;19.99;38.71
75217;HTU21D;63800;51.972;5.682;2023-06-04T09:59:43;20.03;36.08
75217;HTU21D;63800;51.972;5.682;2023-06-04T10:02:09;20.13;36.72
75217;HTU21D;63800;51.972;5.682;2023-06-04T10:04:36;20.39;37.84
75217;HTU21D;63800;51.972;5.682;2023-06-04T10:07:06;20.43;39.03
75217;HTU21D;63800;51.972;5.682;2023-06-04T10:09:34;20.66;38.02
75217;HTU21D;63800;51.972;5.682;2023-06-04T10:12:01;20.81;37.40
75217;HTU21D;63800;51.972;5.682;2023-06-04T10:14:41;20.75;34.31
75217;HTU21D;63800;51.972;5.682;2023-06-04T10:17:09;20.96;34.47
75217;HTU21D;63800;51.972;5.682;2023-06-04T10:19:38;21.37;36.34
75217;HTU21D;63800;51.972;5.682;2023-06-04T10:22:04;21.39;34.65
75217;HTU21D;63800;51.972;5.682;2023-06-04T10:24:30;21.48;35.11
75217;HTU21D;63800;51.972;5.682;2023-06-04T10:26:58;21.66;34.21
75217;HTU21D;63800;51.972;5.682;2023-06-04T10:29:25;21.78;34.93
75217;HTU21D;63800;51.972;5.682;2023-06-04T10:31:54;22.09;34.37
75217;HTU21D;63800;51.972;5.682;2023-06-04T10:34:20;22.35;34.57
75217;HTU21D;63800;51.972;5.682;2023-06-04T10:36:46;22.50;33.32
75217;HTU21D;63800;51.972;5.682;2023-06-04T10:39:12;22.55;33.08
75217;HTU21D;63800;51.972;5.682;2023-06-04T10:41:37;22.66;33.92
75217;HTU21D;63800;51.972;5.682;2023-06-04T10:44:03;22.91;34.60
75217;HTU21D;63800;51.972;5.682;2023-06-04T10:46:39;22.87;32.24
75217;HTU21D;63800;51.972;5.682;2023-06-04T10:49:09;23.08;34.44
75217;HTU21D;63800;51.972;5.682;2023-06-04T10:51:36;23.22;31.74
75217;HTU21D;63800;51.972;5.682;2023-06-04T10:54:06;23.31;33.54
75217;HTU21D;63800;51.972;5.682;2023-06-04T10:56:34;23.30;33.04
75217;HTU21D;63800;51.972;5.682;2023-06-04T10:59:14;23.12;32.58
75217;HTU21D;63800;51.972;5.682;2023-06-04T11:01:39;23.24;33.82
75217;HTU21D;63800;51.972;5.682;2023-06-04T11:04:05;23.61;33.59
75217;HTU21D;63800;51.972;5.682;2023-06-04T11:06:30;22.99;31.42
75217;HTU21D;63800;51.972;5.682;2023-06-04T11:09:04;23.31;32.14
75217;HTU21D;63800;51.972;5.682;2023-06-04T11:11:31;23.58;33.06
75217;HTU21D;63800;51.972;5.682;2023-06-04T11:14:10;23.67;31.73
75217;HTU21D;63800;51.972;5.682;2023-06-04T11:16:37;23.71;30.93
75217;HTU21D;63800;51.972;5.682;2023-06-04T11:19:02;23.86;32.41
75217;HTU21D;63800;51.972;5.682;2023-06-04T11:21:28;24.06;33.44
75217;HTU21D;63800;51.972;5.682;2023-06-04T11:23:58;24.17;32.96
75217;HTU21D;63800;51.972;5.682;2023-06-04T11:26:33;24.23;30.93
75217;HTU21D;63800;51.972;5.682;2023-06-04T11:28:59;24.39;30.83
75217;HTU21D;63800;51.972;5.682;2023-06-04T11:31:25;24.59;30.80
75217;HTU21D;63800;51.972;5.682;2023-06-04T11:33:51;24.66;30.54
75217;HTU21D;63800;51.972;5.682;2023-06-04T11:36:30;24.83;32.92
75217;HTU21D;63800;51.972;5.682;2023-06-04T11:39:00;24.93;34.50
75217;HTU21D;63800;51.972;5.682;2023-06-04T11:41:30;25.05;32.96
75217;HTU21D;63800;51.972;5.682;2023-06-04T11:43:56;25.10;32.70
75217;HTU21D;63800;51.972;5.682;2023-06-04T11:46:23;24.99;34.72
75217;HTU21D;63800;51.972;5.682;2023-06-04T11:48:51;25.12;33.63
75217;HTU21D;63800;51.972;5.682;2023-06-04T11:51:17;25.24;33.43
75217;HTU21D;63800;51.972;5.682;2023-06-04T11:53:43;24.64;31.21
75217;HTU21D;63800;51.972;5.682;2023-06-04T11:56:08;24.90;32.06
75217;HTU21D;63800;51.972;5.682;2023-06-04T11:58:34;25.24;32.58
75217;HTU21D;63800;51.972;5.682;2023-06-04T12:01:00;25.74;31.24
75217;HTU21D;63800;51.972;5.682;2023-06-04T12:03:51;25.57;30.17
75217;HTU21D;63800;51.972;5.682;2023-06-04T12:06:20;25.46;35.02
75217;HTU21D;63800;51.972;5.682;2023-06-04T12:08:55;25.91;30.25
75217;HTU21D;63800;51.972;5.682;2023-06-04T12:14:05;25.67;31.77
75217;HTU21D;63800;51.972;5.682;2023-06-04T12:16:31;25.94;30.31
75217;HTU21D;63800;51.972;5.682;2023-06-04T12:19:12;26.11;30.61
75217;HTU21D;63800;51.972;5.682;2023-06-04T12:21:39;26.22;32.65
75217;HTU21D;63800;51.972;5.682;2023-06-04T12:24:12;26.27;32.06
75217;HTU21D;63800;51.972;5.682;2023-06-04T12:26:40;26.30;31.90
75217;HTU21D;63800;51.972;5.682;2023-06-04T12:29:13;26.10;28.87
75217;HTU21D;63800;51.972;5.682;2023-06-04T12:31:42;26.27;30.62
75217;HTU21D;63800;51.972;5.682;2023-06-04T12:34:08;26.12;28.68
75217;HTU21D;63800;51.972;5.682;2023-06-04T12:36:34;26.48;32.60
75217;HTU21D;63800;51.972;5.682;2023-06-04T12:39:01;26.42;29.28
75217;HTU21D;63800;51.972;5.682;2023-06-04T12:41:30;26.24;29.08
75217;HTU21D;63800;51.972;5.682;2023-06-04T12:43:56;26.31;28.97
75217;HTU21D;63800;51.972;5.682;2023-06-04T12:46:23;26.09;30.64
75217;HTU21D;63800;51.972;5.682;2023-06-04T12:48:50;26.49;29.32
75217;HTU21D;63800;51.972;5.682;2023-06-04T12:51:15;25.80;30.45
75217;HTU21D;63800;51.972;5.682;2023-06-04T12:53:41;26.31;29.60
75217;HTU21D;63800;51.972;5.682;2023-06-04T12:56:07;26.71;29.93
75217;HTU21D;63800;51.972;5.682;2023-06-04T12:58:33;26.71;28.97
75217;HTU21D;63800;51.972;5.682;2023-06-04T13:00:59;26.52;29.18
75217;HTU21D;63800;51.972;5.682;2023-06-04T13:03:25;26.31;32.50
75217;HTU21D;63800;51.972;5.682;2023-06-04T13:05:51;26.70;32.15
75217;HTU21D;63800;51.972;5.682;2023-06-04T13:08:17;26.52;29.90
75217;HTU21D;63800;51.972;5.682;2023-06-04T13:10:42;27.11;29.21
75217;HTU21D;63800;51.972;5.682;2023-06-04T13:13:08;27.14;29.81
75217;HTU21D;63800;51.972;5.682;2023-06-04T13:15:33;26.77;28.32
75217;HTU21D;63800;51.972;5.682;2023-06-04T13:17:58;26.72;34.36
75217;HTU21D;63800;51.972;5.682;2023-06-04T13:20:24;26.85;33.82
75217;HTU21D;63800;51.972;5.682;2023-06-04T13:22:50;27.16;31.03
75217;HTU21D;63800;51.972;5.682;2023-06-04T13:25:15;27.22;27.52
75217;HTU21D;63800;51.972;5.682;2023-06-04T13:27:41;27.05;32.69
75217;HTU21D;63800;51.972;5.682;2023-06-04T13:30:07;26.50;27.41
75217;HTU21D;63800;51.972;5.682;2023-06-04T13:32:32;26.78;33.00
75217;HTU21D;63800;51.972;5.682;2023-06-04T13:34:58;27.16;30.13
75217;HTU21D;63800;51.972;5.682;2023-06-04T13:37:23;27.28;31.27
75217;HTU21D;63800;51.972;5.682;2023-06-04T13:39:49;27.13;30.39
75217;HTU21D;63800;51.972;5.682;2023-06-04T13:42:14;27.04;30.61
75217;HTU21D;63800;51.972;5.682;2023-06-04T13:44:40;27.32;28.66
75217;HTU21D;63800;51.972;5.682;2023-06-04T13:47:05;26.85;31.96
75217;HTU21D;63800;51.972;5.682;2023-06-04T13:49:34;26.91;33.05
75217;HTU21D;63800;51.972;5.682;2023-06-04T13:52:00;27.25;27.53
75217;HTU21D;63800;51.972;5.682;2023-06-04T13:54:25;27.01;28.19
75217;HTU21D;63800;51.972;5.682;2023-06-04T13:56:51;27.00;27.23
75217;HTU21D;63800;51.972;5.682;2023-06-04T13:59:17;27.21;32.03
75217;HTU21D;63800;51.972;5.682;2023-06-04T14:01:42;27.19;30.75
75217;HTU21D;63800;51.972;5.682;2023-06-04T14:04:07;26.94;33.67
75217;HTU21D;63800;51.972;5.682;2023-06-04T14:06:34;27.55;30.22
75217;HTU21D;63800;51.972;5.682;2023-06-04T14:09:01;27.31;28.79
75217;HTU21D;63800;51.972;5.682;2023-06-04T14:11:26;27.04;29.90
75217;HTU21D;63800;51.972;5.682;2023-06-04T14:13:52;26.50;28.72
75217;HTU21D;63800;51.972;5.682;2023-06-04T14:16:17;26.78;30.14
75217;HTU21D;63800;51.972;5.682;2023-06-04T14:18:43;26.76;32.28
75217;HTU21D;63800;51.972;5.682;2023-06-04T14:21:08;26.61;30.82
75217;HTU21D;63800;51.972;5.682;2023-06-04T14:23:34;27.02;29.68
75217;HTU21D;63800;51.972;5.682;2023-06-04T14:25:59;27.55;31.13
75217;HTU21D;63800;51.972;5.682;2023-06-04T14:28:25;27.37;30.77
75217;HTU21D;63800;51.972;5.682;2023-06-04T14:30:50;27.21;30.85
75217;HTU21D;63800;51.972;5.682;2023-06-04T14:33:16;27.14;30.73
75217;HTU21D;63800;51.972;5.682;2023-06-04T14:35:41;26.92;29.84
75217;HTU21D;63800;51.972;5.682;2023-06-04T14:38:12;27.44;28.84
75217;HTU21D;63800;51.972;5.682;2023-06-04T14:40:38;26.75;34.52
75217;HTU21D;63800;51.972;5.682;2023-06-04T14:43:04;27.11;32.76
75217;HTU21D;63800;51.972;5.682;2023-06-04T14:45:29;27.52;29.11
75217;HTU21D;63800;51.972;5.682;2023-06-04T14:47:54;26.80;29.83
75217;HTU21D;63800;51.972;5.682;2023-06-04T14:50:20;26.81;29.36
75217;HTU21D;63800;51.972;5.682;2023-06-04T14:52:47;26.70;30.93
75217;HTU21D;63800;51.972;5.682;2023-06-04T14:55:13;27.22;31.64
75217;HTU21D;63800;51.972;5.682;2023-06-04T14:57:38;27.53;29.13
75217;HTU21D;63800;51.972;5.682;2023-06-04T15:00:05;27.42;30.71
75217;HTU21D;63800;51.972;5.682;2023-06-04T15:02:30;27.10;30.68
75217;HTU21D;63800;51.972;5.682;2023-06-04T15:04:56;26.85;29.45
75217;HTU21D;63800;51.972;5.682;2023-06-04T15:07:22;26.85;28.65
75217;HTU21D;63800;51.972;5.682;2023-06-04T15:09:48;26.52;29.55
75217;HTU21D;63800;51.972;5.682;2023-06-04T15:12:16;27.16;31.97
75217;HTU21D;63800;51.972;5.682;2023-06-04T15:14:43;27.13;29.88
75217;HTU21D;63800;51.972;5.682;2023-06-04T15:17:08;26.81;30.80
75217;HTU21D;63800;51.972;5.682;2023-06-04T15:19:34;26.78;31.32
75217;HTU21D;63800;51.972;5.682;2023-06-04T15:22:00;26.16;32.48